createdAt,value
2023-05-05T00:00:06.148Z,9.14
2023-05-05T00:01:05.950Z,9.13
2023-05-05T00:02:05.908Z,9.10
2023-05-05T00:03:05.968Z,9.08
2023-05-05T00:04:05.966Z,9.04
2023-05-05T00:05:05.907Z,9.04
2023-05-05T00:06:05.854Z,9.05
2023-05-05T00:07:05.877Z,9.04
2023-05-05T00:08:05.825Z,9.02
2023-05-05T00:09:05.871Z,8.99
2023-05-05T00:10:06.028Z,8.99
2023-05-05T00:11:05.842Z,8.98
2023-05-05T00:12:05.825Z,8.99
2023-05-05T00:13:05.877Z,8.96
2023-05-05T00:14:05.776Z,8.96
2023-05-05T00:15:05.772Z,8.94
2023-05-05T00:16:05.758Z,8.95
2023-05-05T00:17:05.775Z,8.92
2023-05-05T00:18:05.756Z,8.92
2023-05-05T00:19:05.738Z,8.92
2023-05-05T00:20:05.942Z,8.92
2023-05-05T00:21:05.733Z,8.89
2023-05-05T00:22:05.676Z,8.91
2023-05-05T00:23:05.705Z,8.89
2023-05-05T00:24:05.652Z,8.87
2023-05-05T00:25:05.654Z,8.87
2023-05-05T00:26:05.643Z,8.86
2023-05-05T00:27:05.647Z,8.87
2023-05-05T00:28:05.625Z,8.84
2023-05-05T00:29:05.632Z,8.84
2023-05-05T00:30:05.723Z,8.84
2023-05-05T00:31:05.653Z,8.80
2023-05-05T00:32:05.592Z,8.80
2023-05-05T00:33:05.600Z,8.79
2023-05-05T00:34:05.567Z,8.79
2023-05-05T00:35:05.564Z,8.77
2023-05-05T00:36:05.562Z,8.76
2023-05-05T00:37:05.519Z,8.74
2023-05-05T00:38:05.535Z,8.74
2023-05-05T00:39:05.513Z,8.74
2023-05-05T00:40:05.701Z,8.76
2023-05-05T00:41:05.479Z,8.74
2023-05-05T00:42:05.492Z,8.74
2023-05-05T00:43:05.449Z,8.76
2023-05-05T00:44:05.466Z,8.74
2023-05-05T00:45:05.444Z,8.73
2023-05-05T00:46:05.486Z,8.74
2023-05-05T00:47:05.419Z,8.74
2023-05-05T00:48:05.500Z,8.76
2023-05-05T00:49:05.440Z,8.74
2023-05-05T00:50:05.542Z,8.71
2023-05-05T00:51:05.374Z,8.68
2023-05-05T00:52:05.417Z,8.68
2023-05-05T00:53:05.359Z,8.68
2023-05-05T00:54:05.367Z,8.70
2023-05-05T00:55:05.348Z,8.68
2023-05-05T00:56:05.352Z,8.70
2023-05-05T00:57:05.312Z,8.68
2023-05-05T00:58:05.353Z,8.66
2023-05-05T00:59:05.296Z,8.66
2023-05-05T01:00:05.449Z,8.65
2023-05-05T01:01:05.262Z,8.63
2023-05-05T01:02:05.318Z,8.62
2023-05-05T01:03:05.349Z,8.61
2023-05-05T01:04:05.330Z,8.59
2023-05-05T01:05:05.232Z,8.59
2023-05-05T01:06:05.295Z,8.59
2023-05-05T01:07:05.206Z,8.58
2023-05-05T01:08:05.222Z,8.56
2023-05-05T01:09:05.182Z,8.55
2023-05-05T01:10:18.251Z,8.55
2023-05-05T01:11:05.174Z,8.53
2023-05-05T01:12:05.186Z,8.53
2023-05-05T01:13:05.167Z,8.53
2023-05-05T01:14:05.142Z,8.52
2023-05-05T01:15:05.116Z,8.52
2023-05-05T01:16:05.159Z,8.52
2023-05-05T01:17:05.102Z,8.50
2023-05-05T01:18:05.111Z,8.50
2023-05-05T01:19:05.090Z,8.50
2023-05-05T01:20:05.105Z,8.50
2023-05-05T01:21:05.065Z,8.50
2023-05-05T01:22:05.064Z,8.50
2023-05-05T01:23:05.095Z,8.48
2023-05-05T01:24:05.043Z,8.48
2023-05-05T01:25:05.024Z,8.47
2023-05-05T01:26:05.029Z,8.47
2023-05-05T01:27:04.986Z,8.47
2023-05-05T01:28:05.004Z,8.43
2023-05-05T01:29:04.975Z,8.41
2023-05-05T01:30:05.051Z,8.41
2023-05-05T01:31:04.937Z,8.40
2023-05-05T01:32:04.964Z,8.40
2023-05-05T01:33:04.930Z,8.37
2023-05-05T01:34:04.921Z,8.37
2023-05-05T01:35:04.901Z,8.37
2023-05-05T01:36:04.929Z,8.36
2023-05-05T01:37:04.874Z,8.37
2023-05-05T01:38:04.888Z,8.38
2023-05-05T01:39:04.888Z,8.37
2023-05-05T01:40:04.913Z,8.36
2023-05-05T01:41:04.863Z,8.33
2023-05-05T01:42:04.829Z,8.28
2023-05-05T01:43:04.868Z,8.25
2023-05-05T01:44:04.842Z,8.26
2023-05-05T01:45:04.802Z,8.26
2023-05-05T01:46:04.831Z,8.26
2023-05-05T01:47:04.777Z,8.26
2023-05-05T01:48:04.786Z,8.25
2023-05-05T01:49:04.779Z,8.25
2023-05-05T01:50:04.869Z,8.23
2023-05-05T01:51:04.763Z,8.23
2023-05-05T01:52:04.715Z,8.23
2023-05-05T01:53:04.712Z,8.20
2023-05-05T01:54:04.686Z,8.19
2023-05-05T01:55:04.710Z,8.20
2023-05-05T01:56:04.666Z,8.18
2023-05-05T01:57:04.691Z,8.18
2023-05-05T01:58:04.641Z,8.19
2023-05-05T01:59:04.664Z,8.19
2023-05-05T02:00:04.743Z,8.19
2023-05-05T02:01:04.677Z,8.19
2023-05-05T02:02:04.624Z,8.16
2023-05-05T02:03:04.724Z,8.16
2023-05-05T02:04:04.577Z,8.12
2023-05-05T02:05:04.619Z,8.10
2023-05-05T02:06:04.550Z,8.07
2023-05-05T02:07:04.594Z,8.07
2023-05-05T02:08:04.536Z,8.02
2023-05-05T02:09:04.536Z,8.02
2023-05-05T02:10:04.547Z,8.00
2023-05-05T02:11:04.549Z,7.98
2023-05-05T02:12:04.515Z,7.98
2023-05-05T02:13:04.639Z,8.01
2023-05-05T02:14:04.509Z,8.04
2023-05-05T02:15:04.501Z,8.05
2023-05-05T02:16:04.481Z,8.05
2023-05-05T02:17:04.479Z,8.08
2023-05-05T02:18:04.518Z,8.08
2023-05-05T02:19:04.434Z,8.08
2023-05-05T02:20:04.408Z,8.08
2023-05-05T02:21:04.439Z,8.08
2023-05-05T02:22:04.415Z,8.07
2023-05-05T02:23:04.411Z,8.08
2023-05-05T02:24:03.537Z,8.08
2023-05-05T02:25:04.383Z,8.08
2023-05-05T02:26:04.344Z,8.08
2023-05-05T02:27:04.366Z,8.10
2023-05-05T02:28:04.356Z,8.10
2023-05-05T02:29:04.344Z,8.12
2023-05-05T02:30:04.314Z,8.12
2023-05-05T02:31:04.336Z,8.12
2023-05-05T02:32:04.289Z,8.12
2023-05-05T02:33:04.350Z,8.16
2023-05-05T02:34:04.258Z,8.15
2023-05-05T02:35:04.286Z,8.15
2023-05-05T02:36:04.245Z,8.15
2023-05-05T02:37:04.262Z,8.15
2023-05-05T02:38:04.243Z,8.15
2023-05-05T02:39:04.233Z,8.15
2023-05-05T02:40:04.199Z,8.12
2023-05-05T02:41:04.205Z,8.12
2023-05-05T02:42:04.179Z,8.12
2023-05-05T02:43:04.223Z,8.11
2023-05-05T02:44:04.151Z,8.11
2023-05-05T02:45:04.157Z,8.12
2023-05-05T02:46:04.174Z,8.11
2023-05-05T02:47:04.170Z,8.10
2023-05-05T02:48:04.162Z,8.11
2023-05-05T02:49:04.136Z,8.11
2023-05-05T02:50:04.118Z,8.11
2023-05-05T02:51:04.087Z,8.11
2023-05-05T02:52:04.067Z,8.12
2023-05-05T02:53:04.086Z,8.15
2023-05-05T02:54:04.061Z,8.15
2023-05-05T02:55:04.084Z,8.18
2023-05-05T02:56:04.032Z,8.19
2023-05-05T02:57:04.053Z,8.19
2023-05-05T02:58:04.008Z,8.20
2023-05-05T02:59:04.030Z,8.22
2023-05-05T03:00:03.971Z,8.22
2023-05-05T03:01:04.146Z,8.23
2023-05-05T03:02:03.956Z,8.25
2023-05-05T03:03:04.024Z,8.23
2023-05-05T03:04:03.948Z,8.23
2023-05-05T03:05:03.974Z,8.23
2023-05-05T03:06:03.927Z,8.20
2023-05-05T03:07:03.940Z,8.19
2023-05-05T03:08:03.910Z,8.19
2023-05-05T03:09:03.931Z,8.19
2023-05-05T03:10:03.878Z,8.15
2023-05-05T03:11:03.898Z,8.12
2023-05-05T03:12:03.888Z,8.11
2023-05-05T03:13:03.924Z,8.10
2023-05-05T03:14:03.853Z,8.11
2023-05-05T03:15:03.857Z,8.10
2023-05-05T03:16:03.813Z,8.10
2023-05-05T03:17:03.822Z,8.10
2023-05-05T03:18:03.828Z,8.11
2023-05-05T03:19:03.809Z,8.10
2023-05-05T03:20:04.032Z,8.10
2023-05-05T03:21:03.804Z,8.11
2023-05-05T03:22:03.743Z,8.10
2023-05-05T03:23:03.755Z,8.15
2023-05-05T03:24:03.714Z,8.15
2023-05-05T03:25:03.697Z,8.15
2023-05-05T03:26:03.640Z,8.15
2023-05-05T03:27:03.711Z,8.12
2023-05-05T03:28:03.692Z,8.12
2023-05-05T03:29:03.655Z,8.11
2023-05-05T03:30:03.629Z,8.10
2023-05-05T03:31:03.627Z,8.10
2023-05-05T03:32:03.700Z,8.08
2023-05-05T03:33:03.628Z,8.08
2023-05-05T03:34:03.556Z,8.07
2023-05-05T03:35:03.568Z,8.05
2023-05-05T03:36:03.543Z,8.07
2023-05-05T03:37:03.551Z,8.07
2023-05-05T03:38:03.536Z,8.05
2023-05-05T03:39:03.520Z,8.05
2023-05-05T03:40:03.491Z,8.05
2023-05-05T03:41:03.509Z,8.05
2023-05-05T03:42:03.489Z,8.04
2023-05-05T03:43:03.474Z,8.02
2023-05-05T03:44:03.455Z,8.00
2023-05-05T03:45:03.501Z,8.00
2023-05-05T03:46:03.455Z,7.98
2023-05-05T03:47:03.469Z,8.00
2023-05-05T03:48:03.500Z,7.97
2023-05-05T03:49:03.474Z,7.95
2023-05-05T03:50:03.398Z,7.92
2023-05-05T03:51:03.433Z,7.92
2023-05-05T03:52:03.387Z,7.90
2023-05-05T03:53:03.381Z,7.90
2023-05-05T03:54:03.405Z,7.90
2023-05-05T03:55:03.379Z,7.90
2023-05-05T03:56:03.340Z,7.89
2023-05-05T03:57:03.337Z,7.89
2023-05-05T03:58:03.298Z,7.87
2023-05-05T03:59:03.323Z,7.87
2023-05-05T04:00:03.316Z,7.87
2023-05-05T04:01:03.291Z,7.86
2023-05-05T04:02:03.311Z,7.89
2023-05-05T04:03:03.311Z,7.89
2023-05-05T04:04:03.271Z,7.85
2023-05-05T04:05:03.298Z,7.85
2023-05-05T04:06:03.237Z,7.83
2023-05-05T04:07:03.242Z,7.82
2023-05-05T04:08:03.218Z,7.85
2023-05-05T04:09:03.224Z,7.87
2023-05-05T04:10:03.187Z,7.89
2023-05-05T04:11:03.189Z,7.92
2023-05-05T04:12:03.188Z,7.93
2023-05-05T04:13:03.218Z,7.93
2023-05-05T04:14:03.127Z,7.93
2023-05-05T04:15:03.142Z,7.93
2023-05-05T04:16:03.144Z,7.93
2023-05-05T04:17:03.186Z,7.92
2023-05-05T04:18:03.118Z,7.93
2023-05-05T04:19:03.136Z,7.93
2023-05-05T04:20:03.090Z,7.92
2023-05-05T04:21:03.090Z,7.92
2023-05-05T04:22:03.061Z,7.92
2023-05-05T04:23:03.160Z,7.90
2023-05-05T04:24:02.120Z,7.87
2023-05-05T04:25:08.015Z,7.90
2023-05-05T04:26:05.211Z,7.90
2023-05-05T04:27:05.688Z,7.92
2023-05-05T04:28:06.148Z,7.93
2023-05-05T04:29:02.997Z,7.97
2023-05-05T04:30:02.997Z,8.00
2023-05-05T04:31:03.009Z,8.02
2023-05-05T04:32:02.960Z,8.07
2023-05-05T04:33:03.011Z,8.10
2023-05-05T04:34:02.949Z,8.15
2023-05-05T04:35:02.958Z,8.16
2023-05-05T04:36:02.936Z,8.20
2023-05-05T04:37:02.912Z,8.23
2023-05-05T04:38:02.916Z,8.26
2023-05-05T04:39:02.930Z,8.29
2023-05-05T04:40:02.861Z,8.33
2023-05-05T04:41:02.869Z,8.36
2023-05-05T04:42:02.875Z,8.38
2023-05-05T04:43:02.858Z,8.40
2023-05-05T04:44:02.805Z,8.40
2023-05-05T04:45:02.813Z,8.43
2023-05-05T04:46:02.815Z,8.44
2023-05-05T04:47:02.811Z,8.44
2023-05-05T04:48:02.809Z,8.45
2023-05-05T04:49:02.784Z,8.47
2023-05-05T04:50:02.750Z,8.48
2023-05-05T04:51:02.773Z,8.50
2023-05-05T04:52:02.765Z,8.53
2023-05-05T04:53:02.713Z,8.56
2023-05-05T04:54:02.740Z,8.59
2023-05-05T04:55:02.691Z,8.63
2023-05-05T04:56:02.729Z,8.68
2023-05-05T04:57:02.676Z,8.71
2023-05-05T04:58:02.684Z,8.76
2023-05-05T04:59:02.674Z,8.79
2023-05-05T05:00:02.714Z,8.81
2023-05-05T05:01:02.622Z,8.83
2023-05-05T05:02:02.673Z,8.87
2023-05-05T05:03:02.719Z,8.89
2023-05-05T05:04:02.682Z,8.94
2023-05-05T05:05:02.592Z,8.94
2023-05-05T05:06:02.586Z,8.96
2023-05-05T05:07:02.575Z,8.99
2023-05-05T05:08:02.575Z,9.01
2023-05-05T05:09:02.579Z,9.04
2023-05-05T05:10:02.583Z,9.10
2023-05-05T05:11:02.547Z,9.14
2023-05-05T05:12:02.531Z,9.18
2023-05-05T05:13:02.539Z,9.24
2023-05-05T05:14:02.496Z,9.28
2023-05-05T05:15:02.512Z,9.31
2023-05-05T05:16:02.532Z,9.35
2023-05-05T05:17:02.514Z,9.40
2023-05-05T05:18:02.544Z,9.46
2023-05-05T05:19:02.459Z,9.51
2023-05-05T05:20:02.465Z,9.56
2023-05-05T05:21:02.410Z,9.60
2023-05-05T05:22:02.427Z,9.68
2023-05-05T05:23:02.407Z,9.74
2023-05-05T05:24:02.443Z,9.81
2023-05-05T05:25:02.380Z,9.90
2023-05-05T05:26:02.365Z,9.96
2023-05-05T05:27:02.346Z,10.04
2023-05-05T05:28:10.157Z,10.12
2023-05-05T05:29:02.320Z,10.20
2023-05-05T05:30:02.361Z,10.30
2023-05-05T05:31:02.306Z,10.40
2023-05-05T05:32:02.451Z,10.51
2023-05-05T05:33:02.446Z,10.60
2023-05-05T05:34:02.297Z,10.67
2023-05-05T05:35:02.255Z,10.76
2023-05-05T05:36:02.269Z,10.84
2023-05-05T05:37:02.298Z,10.91
2023-05-05T05:38:02.257Z,10.97
2023-05-05T05:39:02.203Z,11.06
2023-05-05T05:40:02.232Z,11.11
2023-05-05T05:41:02.198Z,11.19
2023-05-05T05:42:02.214Z,11.25
2023-05-05T05:43:02.202Z,11.29
2023-05-05T05:44:02.181Z,11.36
2023-05-05T05:45:02.170Z,11.42
2023-05-05T05:46:02.201Z,11.44
2023-05-05T05:47:02.131Z,11.51
2023-05-05T05:48:02.176Z,11.55
2023-05-05T05:49:02.101Z,11.58
2023-05-05T05:50:02.117Z,11.62
2023-05-05T05:51:01.115Z,11.67
2023-05-05T05:52:02.091Z,11.72
2023-05-05T05:53:02.064Z,11.75
2023-05-05T05:54:02.090Z,11.80
2023-05-05T05:55:02.097Z,11.86
2023-05-05T05:56:02.052Z,11.88
2023-05-05T05:57:02.013Z,11.98
2023-05-05T05:58:02.016Z,12.02
2023-05-05T05:59:01.996Z,12.09
2023-05-05T06:00:02.400Z,12.13
2023-05-05T06:01:01.980Z,12.21
2023-05-05T06:02:02.073Z,12.31
2023-05-05T06:03:02.066Z,12.39
2023-05-05T06:04:01.978Z,12.49
2023-05-05T06:05:01.934Z,12.62
2023-05-05T06:06:01.985Z,12.72
2023-05-05T06:07:01.931Z,12.83
2023-05-05T06:08:01.937Z,12.95
2023-05-05T06:09:01.879Z,13.05
2023-05-05T06:10:11.269Z,13.15
2023-05-05T06:11:01.917Z,13.28
2023-05-05T06:12:01.886Z,13.38
2023-05-05T06:13:01.883Z,13.45
2023-05-05T06:14:01.891Z,13.54
2023-05-05T06:15:01.823Z,13.60
2023-05-05T06:16:01.853Z,13.69
2023-05-05T06:17:01.795Z,13.77
2023-05-05T06:18:01.861Z,13.84
2023-05-05T06:19:01.780Z,13.89
2023-05-05T06:20:01.830Z,13.95
2023-05-05T06:21:01.765Z,13.99
2023-05-05T06:22:01.793Z,14.02
2023-05-05T06:23:01.723Z,14.03
2023-05-05T06:24:01.758Z,14.07
2023-05-05T06:25:01.712Z,14.03
2023-05-05T06:26:01.728Z,14.03
2023-05-05T06:27:01.686Z,14.04
2023-05-05T06:28:01.705Z,14.07
2023-05-05T06:29:01.674Z,14.14
2023-05-05T06:30:01.693Z,14.22
2023-05-05T06:31:01.686Z,14.36
2023-05-05T06:32:01.660Z,14.43
2023-05-05T06:33:01.646Z,14.47
2023-05-05T06:34:01.655Z,14.64
2023-05-05T06:35:01.600Z,14.84
2023-05-05T06:36:01.642Z,15.03
2023-05-05T06:37:01.594Z,15.32
2023-05-05T06:38:01.596Z,15.59
2023-05-05T06:39:01.559Z,15.46
2023-05-05T06:40:01.579Z,15.57
2023-05-05T06:41:01.547Z,15.71
2023-05-05T06:42:01.592Z,15.82
2023-05-05T06:43:01.525Z,15.92
2023-05-05T06:44:01.523Z,16.04
2023-05-05T06:45:01.494Z,16.34
2023-05-05T06:46:01.525Z,16.53
2023-05-05T06:47:01.488Z,16.67
2023-05-05T06:48:01.589Z,16.94
2023-05-05T06:49:01.465Z,16.97
2023-05-05T06:50:01.498Z,16.89
2023-05-05T06:51:01.450Z,16.64
2023-05-05T06:52:01.446Z,16.58
2023-05-05T06:53:01.405Z,16.79
2023-05-05T06:54:01.427Z,17.21
2023-05-05T06:55:01.387Z,17.56
2023-05-05T06:56:01.439Z,17.89
2023-05-05T06:57:01.354Z,18.15
2023-05-05T06:58:01.379Z,18.37
2023-05-05T06:59:01.337Z,18.55
2023-05-05T07:00:01.368Z,18.80
2023-05-05T07:01:01.376Z,18.91
2023-05-05T07:02:01.336Z,18.99
2023-05-05T07:03:01.409Z,19.10
2023-05-05T07:04:01.343Z,19.41
2023-05-05T07:05:01.279Z,19.62
2023-05-05T07:06:01.271Z,19.78
2023-05-05T07:07:01.265Z,19.61
2023-05-05T07:08:01.278Z,19.31
2023-05-05T07:09:01.224Z,19.18
2023-05-05T07:10:01.287Z,19.14
2023-05-05T07:11:01.229Z,19.41
2023-05-05T07:12:01.272Z,19.65
2023-05-05T07:13:01.355Z,19.56
2023-05-05T07:14:01.205Z,19.65
2023-05-05T07:15:09.409Z,19.69
2023-05-05T07:16:01.190Z,19.94
2023-05-05T07:17:01.223Z,20.17
2023-05-05T07:18:01.241Z,20.50
2023-05-05T07:19:01.129Z,20.50
2023-05-05T07:20:01.133Z,20.67
2023-05-05T07:21:01.113Z,20.87
2023-05-05T07:22:01.124Z,21.07
2023-05-05T07:23:01.089Z,21.13
2023-05-05T07:24:01.084Z,21.13
2023-05-05T07:25:01.101Z,21.24
2023-05-05T07:26:01.101Z,21.42
2023-05-05T07:27:01.040Z,21.38
2023-05-05T07:28:01.042Z,21.56
2023-05-05T07:29:01.010Z,21.72
2023-05-05T07:30:01.020Z,21.83
2023-05-05T07:31:00.992Z,21.99
2023-05-05T07:32:01.081Z,22.17
2023-05-05T07:33:01.020Z,22.15
2023-05-05T07:34:00.991Z,22.10
2023-05-05T07:35:00.952Z,22.18
2023-05-05T07:36:00.973Z,22.22
2023-05-05T07:37:00.940Z,22.33
2023-05-05T07:38:00.946Z,22.49
2023-05-05T07:39:00.899Z,22.57
2023-05-05T07:40:00.911Z,22.39
2023-05-05T07:41:00.904Z,22.18
2023-05-05T07:42:00.896Z,22.00
2023-05-05T07:43:00.863Z,21.90
2023-05-05T07:44:00.892Z,21.69
2023-05-05T07:45:00.829Z,21.50
2023-05-05T07:46:00.867Z,21.32
2023-05-05T07:47:00.817Z,21.52
2023-05-05T07:48:00.842Z,21.79
2023-05-05T07:49:00.801Z,21.94
2023-05-05T07:50:00.821Z,22.07
2023-05-05T07:51:00.763Z,21.96
2023-05-05T07:52:00.795Z,21.98
2023-05-05T07:53:10.909Z,21.53
2023-05-05T07:54:00.777Z,21.65
2023-05-05T07:55:00.728Z,21.79
2023-05-05T07:56:00.752Z,21.53
2023-05-05T07:57:00.702Z,21.69
2023-05-05T07:58:00.713Z,21.61
2023-05-05T07:59:00.678Z,21.74
2023-05-05T08:00:00.722Z,21.82
2023-05-05T08:01:00.693Z,21.98
2023-05-05T08:02:00.664Z,22.10
2023-05-05T08:03:00.745Z,22.36
2023-05-05T08:04:00.702Z,22.65
2023-05-05T08:05:00.640Z,23.02
2023-05-05T08:06:00.643Z,23.20
2023-05-05T08:07:00.595Z,23.38
2023-05-05T08:08:00.597Z,22.79
2023-05-05T08:09:00.566Z,22.55
2023-05-05T08:10:00.606Z,22.58
2023-05-05T08:11:00.553Z,22.62
2023-05-05T08:12:00.571Z,22.55
2023-05-05T08:13:00.541Z,22.47
2023-05-05T08:14:00.532Z,22.47
2023-05-05T08:15:00.503Z,22.42
2023-05-05T08:16:00.565Z,22.35
2023-05-05T08:17:00.502Z,22.09
2023-05-05T08:18:00.572Z,22.10
2023-05-05T08:19:00.465Z,22.18
2023-05-05T08:20:00.466Z,22.37
2023-05-05T08:21:00.445Z,22.58
2023-05-05T08:22:01.453Z,22.49
2023-05-05T08:23:00.503Z,22.70
2023-05-05T08:24:00.434Z,22.72
2023-05-05T08:25:00.413Z,22.75
2023-05-05T08:26:00.411Z,22.91
2023-05-05T08:27:00.394Z,22.97
2023-05-05T08:28:00.379Z,22.90
2023-05-05T08:29:00.368Z,22.92
2023-05-05T08:30:00.426Z,23.05
2023-05-05T08:31:00.352Z,23.19
2023-05-05T08:32:00.518Z,23.28
2023-05-05T08:33:00.357Z,23.31
2023-05-05T08:34:00.338Z,23.48
2023-05-05T08:35:00.288Z,23.66
2023-05-05T08:35:59.293Z,23.66
2023-05-05T08:37:00.263Z,23.83
2023-05-05T08:38:00.299Z,23.93
2023-05-05T08:39:00.245Z,23.73
2023-05-05T08:40:00.517Z,23.84
2023-05-05T08:41:00.238Z,23.73
2023-05-05T08:42:00.239Z,23.69
2023-05-05T08:43:00.214Z,23.69
2023-05-05T08:44:00.211Z,23.54
2023-05-05T08:45:00.184Z,23.60
2023-05-05T08:46:00.203Z,23.58
2023-05-05T08:47:00.254Z,23.58
2023-05-05T08:48:00.235Z,23.63
2023-05-05T08:49:00.171Z,23.78
2023-05-05T08:50:00.196Z,23.95
2023-05-05T08:51:01.888Z,24.10
2023-05-05T08:52:00.143Z,24.16
2023-05-05T08:53:00.233Z,24.12
2023-05-05T08:54:00.161Z,24.10
2023-05-05T08:55:00.116Z,24.08
2023-05-05T08:56:00.121Z,24.09
2023-05-05T08:57:00.068Z,24.16
2023-05-05T08:58:00.078Z,24.08
2023-05-05T08:59:00.037Z,23.97
2023-05-05T09:00:00.042Z,24.09
2023-05-05T09:01:00.055Z,24.35
2023-05-05T09:02:00.052Z,24.31
2023-05-05T09:03:00.178Z,24.18
2023-05-05T09:04:00.010Z,23.91
2023-05-05T09:04:59.975Z,23.97
2023-05-05T09:05:59.972Z,24.06
2023-05-05T09:07:00.008Z,23.95
2023-05-05T09:07:59.940Z,23.94
2023-05-05T09:08:59.942Z,24.05
2023-05-05T09:09:59.915Z,24.24
2023-05-05T09:10:59.926Z,24.34
2023-05-05T09:11:59.894Z,24.45
2023-05-05T09:12:59.942Z,24.40
2023-05-05T09:13:59.894Z,24.45
2023-05-05T09:14:59.918Z,24.42
2023-05-05T09:15:59.880Z,24.57
2023-05-05T09:16:59.947Z,24.65
2023-05-05T09:17:59.866Z,24.87
2023-05-05T09:18:59.844Z,24.96
2023-05-05T09:19:59.821Z,24.98
2023-05-05T09:20:59.842Z,24.73
2023-05-05T09:21:59.800Z,24.81
2023-05-05T09:22:59.811Z,25.08
2023-05-05T09:24:07.414Z,25.17
2023-05-05T09:24:59.785Z,25.18
2023-05-05T09:25:59.748Z,25.13
2023-05-05T09:26:59.776Z,25.14
2023-05-05T09:27:59.742Z,25.30
2023-05-05T09:28:59.755Z,25.64
2023-05-05T09:29:59.725Z,25.76
2023-05-05T09:30:59.733Z,25.45
2023-05-05T09:31:59.698Z,25.38
2023-05-05T09:32:59.714Z,25.45
2023-05-05T09:33:59.697Z,25.42
2023-05-05T09:34:59.691Z,25.52
2023-05-05T09:35:59.650Z,25.69
2023-05-05T09:36:59.667Z,25.95
2023-05-05T09:37:59.670Z,26.18
2023-05-05T09:38:59.652Z,26.50
2023-05-05T09:39:59.605Z,26.73
2023-05-05T09:40:59.711Z,27.00
2023-05-05T09:41:59.584Z,27.00
2023-05-05T09:42:59.600Z,26.87
2023-05-05T09:43:59.584Z,26.73
2023-05-05T09:45:00.022Z,26.50
2023-05-05T09:45:59.595Z,26.09
2023-05-05T09:46:59.557Z,25.90
2023-05-05T09:48:00.597Z,26.06
2023-05-05T09:48:59.554Z,26.23
2023-05-05T09:49:59.507Z,26.39
2023-05-05T09:50:59.554Z,26.72
2023-05-05T09:51:59.489Z,26.97
2023-05-05T09:52:59.505Z,27.02
2023-05-05T09:53:59.482Z,26.97
2023-05-05T09:54:59.486Z,27.07
2023-05-05T09:55:59.455Z,27.06
2023-05-05T09:56:59.446Z,27.03
2023-05-05T09:57:59.480Z,27.09
2023-05-05T09:58:59.465Z,27.00
2023-05-05T09:59:59.394Z,26.85
2023-05-05T10:00:59.430Z,26.95
2023-05-05T10:01:59.406Z,27.04
2023-05-05T10:02:59.450Z,27.03
2023-05-05T10:03:59.372Z,26.77
2023-05-05T10:05:02.087Z,26.57
2023-05-05T10:05:59.351Z,26.35
2023-05-05T10:06:59.364Z,26.21
2023-05-05T10:07:59.317Z,26.23
2023-05-05T10:08:59.340Z,26.50
2023-05-05T10:09:59.297Z,26.73
2023-05-05T10:10:59.312Z,26.66
2023-05-05T10:11:59.278Z,26.66
2023-05-05T10:12:59.323Z,26.76
2023-05-05T10:13:59.260Z,26.50
2023-05-05T10:14:59.275Z,26.43
2023-05-05T10:15:59.291Z,26.17
2023-05-05T10:16:59.270Z,25.75
2023-05-05T10:18:07.466Z,25.54
2023-05-05T10:18:59.226Z,25.51
2023-05-05T10:19:59.202Z,25.47
2023-05-05T10:20:59.228Z,25.60
2023-05-05T10:21:59.183Z,25.64
2023-05-05T10:22:59.195Z,25.80
2023-05-05T10:23:59.155Z,26.10
2023-05-05T10:24:59.178Z,26.25
2023-05-05T10:25:59.130Z,26.33
2023-05-05T10:26:59.178Z,26.23
2023-05-05T10:27:59.105Z,26.06
2023-05-05T10:28:59.144Z,26.01
2023-05-05T10:29:59.100Z,25.94
2023-05-05T10:30:59.106Z,25.87
2023-05-05T10:31:59.095Z,25.75
2023-05-05T10:33:17.311Z,25.73
2023-05-05T10:33:59.172Z,25.73
2023-05-05T10:34:59.055Z,25.64
2023-05-05T10:35:59.033Z,25.60
2023-05-05T10:36:59.056Z,25.62
2023-05-05T10:37:59.017Z,25.61
2023-05-05T10:38:59.029Z,25.52
2023-05-05T10:39:59.005Z,25.47
2023-05-05T10:40:58.995Z,25.57
2023-05-05T10:41:58.969Z,25.64
2023-05-05T10:42:58.988Z,25.73
2023-05-05T10:43:59.355Z,26.06
2023-05-05T10:44:58.984Z,26.25
2023-05-05T10:45:58.959Z,26.45
2023-05-05T10:46:58.933Z,26.57
2023-05-05T10:47:58.926Z,26.70
2023-05-05T10:48:58.975Z,26.76
2023-05-05T10:49:58.896Z,26.84
2023-05-05T10:50:58.928Z,26.94
2023-05-05T10:51:58.881Z,27.06
2023-05-05T10:52:58.918Z,27.18
2023-05-05T10:53:58.914Z,27.37
2023-05-05T10:54:58.863Z,27.74
2023-05-05T10:55:58.830Z,27.82
2023-05-05T10:56:58.881Z,27.82
2023-05-05T10:57:58.812Z,27.81
2023-05-05T10:59:00.089Z,27.81
2023-05-05T10:59:58.817Z,27.84
2023-05-05T11:00:58.827Z,27.84
2023-05-05T11:01:58.757Z,27.97
2023-05-05T11:02:58.912Z,28.06
2023-05-05T11:03:58.800Z,28.04
2023-05-05T11:04:58.786Z,28.33
2023-05-05T11:05:58.718Z,28.54
2023-05-05T11:06:58.743Z,28.68
2023-05-05T11:07:58.712Z,28.51
2023-05-05T11:08:58.705Z,28.41
2023-05-05T11:09:58.679Z,28.58
2023-05-05T11:10:58.697Z,28.61
2023-05-05T11:11:58.666Z,28.48
2023-05-05T11:12:58.715Z,28.46
2023-05-05T11:13:58.653Z,28.30
2023-05-05T11:14:58.668Z,28.29
2023-05-05T11:15:58.632Z,28.54
2023-05-05T11:16:58.719Z,28.44
2023-05-05T11:17:58.661Z,28.27
2023-05-05T11:18:58.605Z,28.07
2023-05-05T11:19:58.576Z,28.00
2023-05-05T11:20:58.603Z,28.00
2023-05-05T11:21:58.564Z,28.02
2023-05-05T11:22:58.560Z,27.99
2023-05-05T11:23:58.538Z,27.97
2023-05-05T11:24:58.537Z,27.96
2023-05-05T11:25:58.532Z,27.90
2023-05-05T11:26:58.523Z,27.92
2023-05-05T11:27:58.505Z,28.07
2023-05-05T11:28:58.512Z,28.14
2023-05-05T11:29:58.499Z,28.07
2023-05-05T11:30:58.854Z,28.29
2023-05-05T11:31:58.461Z,28.46
2023-05-05T11:32:58.497Z,28.41
2023-05-05T11:33:58.438Z,28.41
2023-05-05T11:34:58.447Z,28.06
2023-05-05T11:35:58.454Z,27.79
2023-05-05T11:36:58.439Z,27.78
2023-05-05T11:37:58.390Z,27.65
2023-05-05T11:38:58.413Z,27.54
2023-05-05T11:39:58.399Z,27.50
2023-05-05T11:40:58.438Z,27.51
2023-05-05T11:41:58.354Z,27.57
2023-05-05T11:42:58.370Z,27.55
2023-05-05T11:43:58.328Z,27.57
2023-05-05T11:44:58.350Z,27.41
2023-05-05T11:45:58.329Z,27.36
2023-05-05T11:46:59.462Z,27.21
2023-05-05T11:47:58.336Z,27.09
2023-05-05T11:48:58.310Z,27.13
2023-05-05T11:49:58.282Z,27.03
2023-05-05T11:50:58.283Z,26.87
2023-05-05T11:51:58.261Z,26.73
2023-05-05T11:52:58.262Z,26.60
2023-05-05T11:53:59.218Z,26.57
2023-05-05T11:54:58.251Z,26.47
2023-05-05T11:55:58.205Z,26.40
2023-05-05T11:56:58.236Z,26.45
2023-05-05T11:57:58.198Z,26.43
2023-05-05T11:58:58.200Z,26.37
2023-05-05T11:59:58.162Z,26.29
2023-05-05T12:00:58.168Z,26.17
2023-05-05T12:01:58.132Z,26.02
2023-05-05T12:02:58.265Z,25.73
2023-05-05T12:03:58.519Z,25.51
2023-05-05T12:04:58.245Z,25.21
2023-05-05T12:05:58.113Z,25.13
2023-05-05T12:06:58.118Z,25.05
2023-05-05T12:07:58.078Z,24.83
2023-05-05T12:08:58.081Z,24.73
2023-05-05T12:09:58.068Z,24.61
2023-05-05T12:10:58.058Z,24.58
2023-05-05T12:11:58.055Z,24.60
2023-05-05T12:12:58.089Z,24.53
2023-05-05T12:13:58.032Z,24.62
2023-05-05T12:14:58.032Z,24.77
2023-05-05T12:15:58.005Z,24.85
2023-05-05T12:16:58.019Z,24.98
2023-05-05T12:17:59.527Z,25.05
2023-05-05T12:18:57.976Z,25.09
2023-05-05T12:19:57.957Z,25.03
2023-05-05T12:20:57.953Z,24.90
2023-05-05T12:21:57.931Z,24.71
2023-05-05T12:22:57.944Z,24.67
2023-05-05T12:23:57.902Z,24.68
2023-05-05T12:24:57.920Z,24.71
2023-05-05T12:25:57.891Z,24.78
2023-05-05T12:26:57.881Z,24.71
2023-05-05T12:27:57.868Z,24.49
2023-05-05T12:28:58.009Z,24.32
2023-05-05T12:29:58.163Z,24.24
2023-05-05T12:30:58.638Z,24.31
2023-05-05T12:31:58.234Z,24.27
2023-05-05T12:32:58.406Z,24.24
2023-05-05T12:33:58.556Z,24.28
2023-05-05T12:34:58.616Z,24.35
2023-05-05T12:35:58.538Z,24.43
2023-05-05T12:36:58.187Z,24.43
2023-05-05T12:37:58.416Z,24.40
2023-05-05T12:38:58.468Z,24.45
2023-05-05T12:39:58.520Z,24.47
2023-05-05T12:40:58.504Z,24.40
2023-05-05T12:41:58.091Z,24.34
2023-05-05T12:42:58.498Z,24.32
2023-05-05T12:43:58.449Z,24.34
2023-05-05T12:44:58.502Z,24.35
2023-05-05T12:45:58.452Z,24.40
2023-05-05T12:46:58.433Z,24.42
2023-05-05T12:47:58.430Z,24.39
2023-05-05T12:48:58.440Z,24.35
2023-05-05T12:49:58.396Z,24.34
2023-05-05T12:50:58.317Z,24.32
2023-05-05T12:51:58.423Z,24.34
2023-05-05T12:52:58.361Z,24.35
2023-05-05T12:53:58.336Z,24.42
2023-05-05T12:54:58.357Z,24.45
2023-05-05T12:55:58.341Z,24.45
2023-05-05T12:56:58.372Z,24.42
2023-05-05T12:57:58.311Z,24.35
2023-05-05T12:58:58.028Z,24.28
2023-05-05T12:59:58.283Z,24.25
2023-05-05T13:00:58.340Z,24.15
2023-05-05T13:01:58.297Z,24.10
2023-05-05T13:02:58.315Z,23.95